Chachapoyas, Chachapoyas Airport (SPPY)

NameChachapoyas Airport
CityChachapoyas
CountryPeru
ICAOSPPY
IATACHH
Altitude2540 m
CoordinatesGoogle Map
Live Air TrafficLiveATC.net
METARSPPY 121700Z 03006KT 9999 VCSH SCT025 BKN130 16/12 Q1028 RMK PP000
2017-01-12 17:00:00 Wind: North-Northeast (30°) 3.09 m/s - Visibility: > 10000 m - Weather: Vicinity Showers - Temperature: 16 °C - Dew point: 12 °C - Humidity: 77.3% - Pressure: 1028 hPa

Sorry, no flights used the airport in this database.